Acme, Pennsylvania
Current Conditions -  °F | °C
As of 11:35 PM on Monday 20 Oct 2014 (Local Time) from KLBE Reporting Station
Overcast Overcast  
Wind Chill: 52°   Ceiling: 3500
Heat Index: 52°   Visibility: 10mi
Dew Point: 48°   Wind: 6mph
Humidity: 88%   Direction: 190°S
Pressure: 29.9"   Gusts: NA
Location:  40.13°N, 79.43°W
Report Text: KLBE 210335Z AUTO 19005KT 10SM BKN035 OVC046 11/09 A2990 RMK A02 P001
Loading
Personal Weather Stations






























Interactive Weather Map
Tropical Storm Tracking
New forecast layout! Learn more

10-Day Weather Forecast

Advertisements
Track Severe Weather on mobile